sensor_id;sensor_type;location;lat;lon;timestamp;P1;durP1;ratioP1;P2;durP2;ratioP2
22752;SDS011;11543;43.144;24.684;2024-01-11T00:00:08;45.22;;;21.50;;
22752;SDS011;11543;43.144;24.684;2024-01-11T00:02:34;41.40;;;21.75;;
22752;SDS011;11543;43.144;24.684;2024-01-11T00:05:01;36.30;;;20.00;;
22752;SDS011;11543;43.144;24.684;2024-01-11T00:07:27;43.67;;;22.63;;
22752;SDS011;11543;43.144;24.684;2024-01-11T00:09:52;52.17;;;26.50;;
22752;SDS011;11543;43.144;24.684;2024-01-11T00:12:18;61.15;;;32.15;;
22752;SDS011;11543;43.144;24.684;2024-01-11T00:14:43;56.20;;;29.05;;
22752;SDS011;11543;43.144;24.684;2024-01-11T00:17:09;51.13;;;27.08;;
22752;SDS011;11543;43.144;24.684;2024-01-11T00:19:34;42.00;;;21.05;;
22752;SDS011;11543;43.144;24.684;2024-01-11T00:22:00;34.33;;;18.17;;
22752;SDS011;11543;43.144;24.684;2024-01-11T00:24:25;31.38;;;15.73;;
22752;SDS011;11543;43.144;24.684;2024-01-11T00:26:54;28.85;;;15.52;;
22752;SDS011;11543;43.144;24.684;2024-01-11T00:29:20;27.25;;;14.70;;
22752;SDS011;11543;43.144;24.684;2024-01-11T00:31:46;31.58;;;16.15;;
22752;SDS011;11543;43.144;24.684;2024-01-11T00:34:12;30.23;;;16.42;;
22752;SDS011;11543;43.144;24.684;2024-01-11T00:36:37;29.65;;;15.82;;
22752;SDS011;11543;43.144;24.684;2024-01-11T00:39:03;24.80;;;14.45;;
22752;SDS011;11543;43.144;24.684;2024-01-11T00:41:29;20.55;;;12.35;;
22752;SDS011;11543;43.144;24.684;2024-01-11T00:43:54;26.17;;;12.25;;
22752;SDS011;11543;43.144;24.684;2024-01-11T00:46:20;21.13;;;11.10;;
22752;SDS011;11543;43.144;24.684;2024-01-11T00:48:45;20.02;;;11.27;;
22752;SDS011;11543;43.144;24.684;2024-01-11T00:51:11;19.50;;;11.52;;
22752;SDS011;11543;43.144;24.684;2024-01-11T00:53:36;24.20;;;12.45;;
22752;SDS011;11543;43.144;24.684;2024-01-11T00:56:02;33.05;;;16.02;;
22752;SDS011;11543;43.144;24.684;2024-01-11T00:58:28;31.05;;;16.35;;
22752;SDS011;11543;43.144;24.684;2024-01-11T01:00:54;30.30;;;15.98;;
22752;SDS011;11543;43.144;24.684;2024-01-11T01:03:20;56.60;;;25.05;;
22752;SDS011;11543;43.144;24.684;2024-01-11T01:05:46;63.80;;;28.52;;
22752;SDS011;11543;43.144;24.684;2024-01-11T01:08:12;51.22;;;23.70;;
22752;SDS011;11543;43.144;24.684;2024-01-11T01:10:38;44.75;;;21.20;;
22752;SDS011;11543;43.144;24.684;2024-01-11T01:13:04;41.65;;;21.92;;
22752;SDS011;11543;43.144;24.684;2024-01-11T01:15:30;41.38;;;22.95;;
22752;SDS011;11543;43.144;24.684;2024-01-11T01:17:56;40.67;;;22.77;;
22752;SDS011;11543;43.144;24.684;2024-01-11T01:20:22;36.42;;;20.38;;
22752;SDS011;11543;43.144;24.684;2024-01-11T01:22:47;33.08;;;18.60;;
22752;SDS011;11543;43.144;24.684;2024-01-11T01:25:14;34.10;;;18.38;;
22752;SDS011;11543;43.144;24.684;2024-01-11T01:27:40;36.53;;;19.58;;
22752;SDS011;11543;43.144;24.684;2024-01-11T01:30:05;37.35;;;21.63;;
22752;SDS011;11543;43.144;24.684;2024-01-11T01:32:31;36.72;;;19.65;;
22752;SDS011;11543;43.144;24.684;2024-01-11T01:34:57;39.55;;;21.70;;
22752;SDS011;11543;43.144;24.684;2024-01-11T01:37:23;47.58;;;24.55;;
22752;SDS011;11543;43.144;24.684;2024-01-11T01:39:49;58.42;;;30.63;;
22752;SDS011;11543;43.144;24.684;2024-01-11T01:42:15;53.53;;;27.55;;
22752;SDS011;11543;43.144;24.684;2024-01-11T01:44:41;55.80;;;27.95;;
22752;SDS011;11543;43.144;24.684;2024-01-11T01:47:08;50.45;;;28.33;;
22752;SDS011;11543;43.144;24.684;2024-01-11T01:49:35;57.60;;;30.05;;
22752;SDS011;11543;43.144;24.684;2024-01-11T01:52:02;60.35;;;30.65;;
22752;SDS011;11543;43.144;24.684;2024-01-11T01:54:29;60.90;;;30.80;;
22752;SDS011;11543;43.144;24.684;2024-01-11T01:56:57;55.83;;;28.98;;
22752;SDS011;11543;43.144;24.684;2024-01-11T01:59:24;48.40;;;24.80;;
22752;SDS011;11543;43.144;24.684;2024-01-11T02:01:51;47.25;;;24.95;;
22752;SDS011;11543;43.144;24.684;2024-01-11T02:04:17;46.78;;;23.02;;
22752;SDS011;11543;43.144;24.684;2024-01-11T02:06:44;36.38;;;18.45;;
22752;SDS011;11543;43.144;24.684;2024-01-11T02:09:11;29.85;;;15.63;;
22752;SDS011;11543;43.144;24.684;2024-01-11T02:11:38;24.52;;;13.30;;
22752;SDS011;11543;43.144;24.684;2024-01-11T02:14:06;21.45;;;12.52;;
22752;SDS011;11543;43.144;24.684;2024-01-11T02:16:32;19.95;;;11.30;;
22752;SDS011;11543;43.144;24.684;2024-01-11T02:18:59;19.05;;;11.10;;
22752;SDS011;11543;43.144;24.684;2024-01-11T02:21:25;20.17;;;10.48;;
22752;SDS011;11543;43.144;24.684;2024-01-11T02:24:00;20.77;;;10.70;;
22752;SDS011;11543;43.144;24.684;2024-01-11T02:26:26;21.10;;;11.02;;
22752;SDS011;11543;43.144;24.684;2024-01-11T02:28:51;18.75;;;10.85;;
22752;SDS011;11543;43.144;24.684;2024-01-11T02:31:17;20.23;;;10.82;;
22752;SDS011;11543;43.144;24.684;2024-01-11T02:33:42;21.55;;;11.85;;
22752;SDS011;11543;43.144;24.684;2024-01-11T02:36:08;20.20;;;10.98;;
22752;SDS011;11543;43.144;24.684;2024-01-11T02:38:34;20.73;;;10.50;;
22752;SDS011;11543;43.144;24.684;2024-01-11T02:41:01;19.83;;;10.18;;
22752;SDS011;11543;43.144;24.684;2024-01-11T02:43:27;20.02;;;10.13;;
22752;SDS011;11543;43.144;24.684;2024-01-11T02:45:56;15.70;;;9.52;;
22752;SDS011;11543;43.144;24.684;2024-01-11T02:48:27;14.77;;;8.18;;
22752;SDS011;11543;43.144;24.684;2024-01-11T02:50:53;17.73;;;8.77;;
22752;SDS011;11543;43.144;24.684;2024-01-11T02:53:19;16.80;;;8.57;;
22752;SDS011;11543;43.144;24.684;2024-01-11T02:55:44;16.70;;;7.82;;
22752;SDS011;11543;43.144;24.684;2024-01-11T02:58:10;12.73;;;7.07;;
22752;SDS011;11543;43.144;24.684;2024-01-11T03:00:35;11.40;;;6.95;;
22752;SDS011;11543;43.144;24.684;2024-01-11T03:03:01;11.93;;;6.13;;
22752;SDS011;11543;43.144;24.684;2024-01-11T03:05:27;10.85;;;5.85;;
22752;SDS011;11543;43.144;24.684;2024-01-11T03:07:53;11.55;;;6.68;;
22752;SDS011;11543;43.144;24.684;2024-01-11T03:10:19;14.63;;;6.93;;
22752;SDS011;11543;43.144;24.684;2024-01-11T03:12:44;12.85;;;7.35;;
22752;SDS011;11543;43.144;24.684;2024-01-11T03:15:10;17.55;;;9.75;;
22752;SDS011;11543;43.144;24.684;2024-01-11T03:17:35;15.65;;;10.27;;
22752;SDS011;11543;43.144;24.684;2024-01-11T03:20:01;17.70;;;9.45;;
22752;SDS011;11543;43.144;24.684;2024-01-11T03:22:28;16.55;;;7.78;;
22752;SDS011;11543;43.144;24.684;2024-01-11T03:24:54;18.08;;;9.38;;
22752;SDS011;11543;43.144;24.684;2024-01-11T03:27:19;17.92;;;10.05;;
22752;SDS011;11543;43.144;24.684;2024-01-11T03:29:45;20.25;;;10.82;;
22752;SDS011;11543;43.144;24.684;2024-01-11T03:32:10;36.40;;;16.83;;
22752;SDS011;11543;43.144;24.684;2024-01-11T03:34:39;39.83;;;19.55;;
22752;SDS011;11543;43.144;24.684;2024-01-11T03:37:04;41.53;;;20.27;;
22752;SDS011;11543;43.144;24.684;2024-01-11T03:39:30;46.67;;;22.27;;
22752;SDS011;11543;43.144;24.684;2024-01-11T03:41:55;48.22;;;22.58;;
22752;SDS011;11543;43.144;24.684;2024-01-11T03:44:22;39.97;;;19.67;;
22752;SDS011;11543;43.144;24.684;2024-01-11T03:46:47;33.63;;;17.05;;
22752;SDS011;11543;43.144;24.684;2024-01-11T03:49:13;27.75;;;14.55;;
22752;SDS011;11543;43.144;24.684;2024-01-11T03:51:39;28.60;;;15.57;;
22752;SDS011;11543;43.144;24.684;2024-01-11T03:54:05;38.72;;;19.15;;
22752;SDS011;11543;43.144;24.684;2024-01-11T03:56:30;35.85;;;19.65;;
22752;SDS011;11543;43.144;24.684;2024-01-11T03:58:56;35.35;;;19.45;;
22752;SDS011;11543;43.144;24.684;2024-01-11T04:01:21;48.08;;;23.58;;
22752;SDS011;11543;43.144;24.684;2024-01-11T04:03:47;56.05;;;25.67;;
22752;SDS011;11543;43.144;24.684;2024-01-11T04:06:22;47.30;;;22.85;;
22752;SDS011;11543;43.144;24.684;2024-01-11T04:08:49;37.17;;;19.45;;
22752;SDS011;11543;43.144;24.684;2024-01-11T04:11:16;28.02;;;15.05;;
22752;SDS011;11543;43.144;24.684;2024-01-11T04:13:42;22.10;;;12.20;;
22752;SDS011;11543;43.144;24.684;2024-01-11T04:16:08;23.65;;;11.57;;
22752;SDS011;11543;43.144;24.684;2024-01-11T04:18:34;17.88;;;9.80;;
22752;SDS011;11543;43.144;24.684;2024-01-11T04:20:59;16.50;;;9.00;;
22752;SDS011;11543;43.144;24.684;2024-01-11T04:23:25;16.75;;;8.48;;
22752;SDS011;11543;43.144;24.684;2024-01-11T04:25:51;17.73;;;8.93;;
22752;SDS011;11543;43.144;24.684;2024-01-11T04:28:17;13.82;;;8.40;;
22752;SDS011;11543;43.144;24.684;2024-01-11T04:30:43;17.23;;;9.82;;
22752;SDS011;11543;43.144;24.684;2024-01-11T04:33:09;16.05;;;7.95;;
22752;SDS011;11543;43.144;24.684;2024-01-11T04:35:36;14.75;;;8.15;;
22752;SDS011;11543;43.144;24.684;2024-01-11T04:38:03;15.00;;;7.78;;
22752;SDS011;11543;43.144;24.684;2024-01-11T04:40:29;13.50;;;7.53;;
22752;SDS011;11543;43.144;24.684;2024-01-11T04:42:56;12.27;;;7.32;;
22752;SDS011;11543;43.144;24.684;2024-01-11T04:45:22;12.43;;;7.45;;
22752;SDS011;11543;43.144;24.684;2024-01-11T04:47:50;13.25;;;7.60;;
22752;SDS011;11543;43.144;24.684;2024-01-11T04:50:16;14.70;;;7.70;;
22752;SDS011;11543;43.144;24.684;2024-01-11T04:52:42;15.30;;;7.82;;
22752;SDS011;11543;43.144;24.684;2024-01-11T04:55:07;12.68;;;7.05;;
22752;SDS011;11543;43.144;24.684;2024-01-11T04:57:33;11.70;;;6.80;;
22752;SDS011;11543;43.144;24.684;2024-01-11T04:59:59;13.35;;;7.82;;
22752;SDS011;11543;43.144;24.684;2024-01-11T05:02:24;15.20;;;9.18;;
22752;SDS011;11543;43.144;24.684;2024-01-11T05:04:51;19.23;;;10.52;;
22752;SDS011;11543;43.144;24.684;2024-01-11T05:07:17;23.40;;;13.73;;
22752;SDS011;11543;43.144;24.684;2024-01-11T05:09:42;27.23;;;16.17;;
22752;SDS011;11543;43.144;24.684;2024-01-11T05:12:08;33.65;;;19.58;;
22752;SDS011;11543;43.144;24.684;2024-01-11T05:15:14;25.80;;;14.80;;
22752;SDS011;11543;43.144;24.684;2024-01-11T05:17:39;26.42;;;15.00;;
22752;SDS011;11543;43.144;24.684;2024-01-11T05:23:33;20.50;;;11.77;;
22752;SDS011;11543;43.144;24.684;2024-01-11T05:29:28;23.17;;;12.73;;
22752;SDS011;11543;43.144;24.684;2024-01-11T05:31:54;35.75;;;17.27;;
22752;SDS011;11543;43.144;24.684;2024-01-11T05:37:02;46.72;;;21.90;;
22752;SDS011;11543;43.144;24.684;2024-01-11T05:39:27;57.65;;;29.67;;
22752;SDS011;11543;43.144;24.684;2024-01-11T05:41:53;78.57;;;36.40;;
22752;SDS011;11543;43.144;24.684;2024-01-11T05:44:19;95.53;;;48.17;;
22752;SDS011;11543;43.144;24.684;2024-01-11T05:46:45;103.80;;;46.25;;
22752;SDS011;11543;43.144;24.684;2024-01-11T05:49:10;104.65;;;51.50;;
22752;SDS011;11543;43.144;24.684;2024-01-11T05:51:36;102.22;;;53.30;;
22752;SDS011;11543;43.144;24.684;2024-01-11T05:54:01;112.05;;;50.75;;
22752;SDS011;11543;43.144;24.684;2024-01-11T05:56:29;91.40;;;43.65;;
22752;SDS011;11543;43.144;24.684;2024-01-11T05:58:54;106.55;;;47.50;;
22752;SDS011;11543;43.144;24.684;2024-01-11T06:01:20;103.47;;;52.13;;
22752;SDS011;11543;43.144;24.684;2024-01-11T06:03:46;118.47;;;56.15;;
22752;SDS011;11543;43.144;24.684;2024-01-11T06:06:12;113.53;;;58.40;;
22752;SDS011;11543;43.144;24.684;2024-01-11T06:08:38;117.85;;;56.83;;
22752;SDS011;11543;43.144;24.684;2024-01-11T06:11:04;111.07;;;57.88;;
22752;SDS011;11543;43.144;24.684;2024-01-11T06:13:29;112.88;;;53.67;;
22752;SDS011;11543;43.144;24.684;2024-01-11T06:15:55;108.85;;;52.92;;
22752;SDS011;11543;43.144;24.684;2024-01-11T06:18:20;98.15;;;48.53;;
22752;SDS011;11543;43.144;24.684;2024-01-11T06:20:46;79.25;;;38.88;;
22752;SDS011;11543;43.144;24.684;2024-01-11T06:23:12;60.55;;;31.20;;
22752;SDS011;11543;43.144;24.684;2024-01-11T06:25:37;61.50;;;28.67;;
22752;SDS011;11543;43.144;24.684;2024-01-11T06:28:03;52.42;;;26.75;;
22752;SDS011;11543;43.144;24.684;2024-01-11T06:30:29;55.67;;;27.95;;
22752;SDS011;11543;43.144;24.684;2024-01-11T06:32:54;74.97;;;39.63;;
22752;SDS011;11543;43.144;24.684;2024-01-11T06:35:20;84.07;;;44.95;;
22752;SDS011;11543;43.144;24.684;2024-01-11T06:37:46;99.90;;;52.17;;
22752;SDS011;11543;43.144;24.684;2024-01-11T06:40:11;106.50;;;54.22;;
22752;SDS011;11543;43.144;24.684;2024-01-11T06:42:38;95.38;;;48.30;;
22752;SDS011;11543;43.144;24.684;2024-01-11T06:45:04;88.70;;;43.92;;
22752;SDS011;11543;43.144;24.684;2024-01-11T06:47:29;80.38;;;40.78;;
22752;SDS011;11543;43.144;24.684;2024-01-11T06:49:55;71.03;;;37.42;;
22752;SDS011;11543;43.144;24.684;2024-01-11T06:52:21;80.85;;;40.00;;
22752;SDS011;11543;43.144;24.684;2024-01-11T06:54:47;79.20;;;41.03;;
22752;SDS011;11543;43.144;24.684;2024-01-11T06:57:12;90.72;;;46.10;;
22752;SDS011;11543;43.144;24.684;2024-01-11T06:59:41;88.53;;;44.65;;
22752;SDS011;11543;43.144;24.684;2024-01-11T07:02:06;73.50;;;36.40;;
22752;SDS011;11543;43.144;24.684;2024-01-11T07:04:33;60.78;;;31.35;;
22752;SDS011;11543;43.144;24.684;2024-01-11T07:06:59;58.30;;;29.00;;
22752;SDS011;11543;43.144;24.684;2024-01-11T07:09:26;59.55;;;28.77;;
22752;SDS011;11543;43.144;24.684;2024-01-11T07:11:52;65.43;;;30.50;;
22752;SDS011;11543;43.144;24.684;2024-01-11T07:14:18;62.72;;;30.35;;
22752;SDS011;11543;43.144;24.684;2024-01-11T07:16:45;65.18;;;27.80;;
22752;SDS011;11543;43.144;24.684;2024-01-11T07:19:12;48.08;;;25.55;;
22752;SDS011;11543;43.144;24.684;2024-01-11T07:21:38;53.13;;;24.55;;
22752;SDS011;11543;43.144;24.684;2024-01-11T07:24:04;48.38;;;26.25;;
22752;SDS011;11543;43.144;24.684;2024-01-11T07:26:30;54.35;;;27.40;;
22752;SDS011;11543;43.144;24.684;2024-01-11T07:28:57;57.20;;;28.98;;
22752;SDS011;11543;43.144;24.684;2024-01-11T07:31:22;60.40;;;30.50;;
22752;SDS011;11543;43.144;24.684;2024-01-11T07:33:48;63.22;;;31.40;;
22752;SDS011;11543;43.144;24.684;2024-01-11T07:36:13;56.53;;;29.38;;
22752;SDS011;11543;43.144;24.684;2024-01-11T07:38:39;57.50;;;28.52;;
22752;SDS011;11543;43.144;24.684;2024-01-11T07:41:05;55.85;;;30.15;;
22752;SDS011;11543;43.144;24.684;2024-01-11T07:43:31;58.90;;;29.05;;
22752;SDS011;11543;43.144;24.684;2024-01-11T07:46:00;56.50;;;28.25;;
22752;SDS011;11543;43.144;24.684;2024-01-11T07:48:30;56.05;;;26.65;;
22752;SDS011;11543;43.144;24.684;2024-01-11T07:50:57;52.45;;;27.50;;
22752;SDS011;11543;43.144;24.684;2024-01-11T07:53:23;53.17;;;26.35;;
22752;SDS011;11543;43.144;24.684;2024-01-11T07:55:48;48.70;;;25.23;;
22752;SDS011;11543;43.144;24.684;2024-01-11T07:58:14;55.08;;;27.98;;
22752;SDS011;11543;43.144;24.684;2024-01-11T08:00:40;67.15;;;34.15;;
22752;SDS011;11543;43.144;24.684;2024-01-11T08:03:05;72.05;;;37.08;;
22752;SDS011;11543;43.144;24.684;2024-01-11T08:05:31;76.07;;;37.75;;
22752;SDS011;11543;43.144;24.684;2024-01-11T08:07:57;72.13;;;38.40;;
22752;SDS011;11543;43.144;24.684;2024-01-11T08:10:26;70.30;;;36.67;;
22752;SDS011;11543;43.144;24.684;2024-01-11T08:12:52;74.97;;;39.90;;
22752;SDS011;11543;43.144;24.684;2024-01-11T08:15:17;85.03;;;42.60;;
22752;SDS011;11543;43.144;24.684;2024-01-11T08:17:46;77.68;;;39.60;;
22752;SDS011;11543;43.144;24.684;2024-01-11T08:20:12;78.78;;;40.10;;
22752;SDS011;11543;43.144;24.684;2024-01-11T08:22:41;71.68;;;38.35;;
22752;SDS011;11543;43.144;24.684;2024-01-11T08:25:08;77.18;;;38.08;;
22752;SDS011;11543;43.144;24.684;2024-01-11T08:27:34;70.40;;;36.25;;
22752;SDS011;11543;43.144;24.684;2024-01-11T08:30:01;66.75;;;34.78;;
22752;SDS011;11543;43.144;24.684;2024-01-11T08:32:27;66.80;;;33.58;;
22752;SDS011;11543;43.144;24.684;2024-01-11T08:34:53;61.63;;;33.83;;
22752;SDS011;11543;43.144;24.684;2024-01-11T08:37:19;58.35;;;32.65;;
22752;SDS011;11543;43.144;24.684;2024-01-11T08:39:45;67.82;;;32.63;;
22752;SDS011;11543;43.144;24.684;2024-01-11T08:42:11;59.90;;;32.03;;
22752;SDS011;11543;43.144;24.684;2024-01-11T08:44:40;52.45;;;30.30;;
22752;SDS011;11543;43.144;24.684;2024-01-11T08:47:06;54.20;;;30.70;;
22752;SDS011;11543;43.144;24.684;2024-01-11T08:49:32;52.88;;;29.50;;
22752;SDS011;11543;43.144;24.684;2024-01-11T08:51:57;49.22;;;29.17;;
22752;SDS011;11543;43.144;24.684;2024-01-11T08:54:23;46.72;;;27.67;;
22752;SDS011;11543;43.144;24.684;2024-01-11T08:56:48;47.22;;;27.60;;
22752;SDS011;11543;43.144;24.684;2024-01-11T08:59:14;47.47;;;25.83;;
22752;SDS011;11543;43.144;24.684;2024-01-11T09:01:39;44.33;;;26.02;;
22752;SDS011;11543;43.144;24.684;2024-01-11T09:04:05;44.70;;;24.52;;
22752;SDS011;11543;43.144;24.684;2024-01-11T09:06:31;44.85;;;25.05;;
22752;SDS011;11543;43.144;24.684;2024-01-11T09:08:57;43.15;;;23.98;;
22752;SDS011;11543;43.144;24.684;2024-01-11T09:11:22;42.63;;;24.27;;
22752;SDS011;11543;43.144;24.684;2024-01-11T09:13:48;43.70;;;24.60;;
22752;SDS011;11543;43.144;24.684;2024-01-11T09:16:14;42.78;;;24.35;;
22752;SDS011;11543;43.144;24.684;2024-01-11T09:18:42;40.65;;;21.95;;
22752;SDS011;11543;43.144;24.684;2024-01-11T09:21:08;36.55;;;21.48;;
22752;SDS011;11543;43.144;24.684;2024-01-11T09:23:34;34.30;;;19.88;;
22752;SDS011;11543;43.144;24.684;2024-01-11T09:26:00;34.85;;;18.50;;
22752;SDS011;11543;43.144;24.684;2024-01-11T09:28:25;30.55;;;17.80;;
22752;SDS011;11543;43.144;24.684;2024-01-11T09:30:51;31.38;;;17.50;;
22752;SDS011;11543;43.144;24.684;2024-01-11T09:33:16;30.42;;;17.67;;
22752;SDS011;11543;43.144;24.684;2024-01-11T09:35:42;32.63;;;18.35;;
22752;SDS011;11543;43.144;24.684;2024-01-11T09:38:07;31.77;;;17.50;;
22752;SDS011;11543;43.144;24.684;2024-01-11T09:40:33;34.22;;;18.08;;
22752;SDS011;11543;43.144;24.684;2024-01-11T09:42:59;31.70;;;17.45;;
22752;SDS011;11543;43.144;24.684;2024-01-11T09:45:29;31.92;;;16.80;;
22752;SDS011;11543;43.144;24.684;2024-01-11T09:47:54;29.20;;;17.20;;
22752;SDS011;11543;43.144;24.684;2024-01-11T09:50:20;34.22;;;17.30;;
22752;SDS011;11543;43.144;24.684;2024-01-11T09:52:48;32.20;;;17.20;;
22752;SDS011;11543;43.144;24.684;2024-01-11T09:55:14;28.15;;;16.23;;
22752;SDS011;11543;43.144;24.684;2024-01-11T09:57:44;27.58;;;15.65;;
22752;SDS011;11543;43.144;24.684;2024-01-11T10:00:19;29.67;;;16.30;;
22752;SDS011;11543;43.144;24.684;2024-01-11T10:02:50;27.08;;;15.48;;
22752;SDS011;11543;43.144;24.684;2024-01-11T10:05:16;25.77;;;15.15;;
22752;SDS011;11543;43.144;24.684;2024-01-11T10:07:42;27.88;;;15.40;;
22752;SDS011;11543;43.144;24.684;2024-01-11T10:10:08;23.67;;;13.85;;
22752;SDS011;11543;43.144;24.684;2024-01-11T10:12:35;24.10;;;13.95;;
22752;SDS011;11543;43.144;24.684;2024-01-11T10:15:09;21.27;;;11.90;;
22752;SDS011;11543;43.144;24.684;2024-01-11T10:17:36;18.38;;;11.35;;
22752;SDS011;11543;43.144;24.684;2024-01-11T10:20:13;17.35;;;10.02;;
22752;SDS011;11543;43.144;24.684;2024-01-11T10:22:41;15.00;;;9.32;;
22752;SDS011;11543;43.144;24.684;2024-01-11T10:25:10;14.68;;;8.60;;
22752;SDS011;11543;43.144;24.684;2024-01-11T10:27:40;15.32;;;8.90;;
22752;SDS011;11543;43.144;24.684;2024-01-11T10:30:08;13.63;;;8.23;;
22752;SDS011;11543;43.144;24.684;2024-01-11T10:32:40;12.30;;;7.35;;
22752;SDS011;11543;43.144;24.684;2024-01-11T10:35:06;13.40;;;7.63;;
22752;SDS011;11543;43.144;24.684;2024-01-11T10:37:32;10.38;;;5.13;;
22752;SDS011;11543;43.144;24.684;2024-01-11T10:40:02;8.35;;;3.65;;
22752;SDS011;11543;43.144;24.684;2024-01-11T10:42:34;7.20;;;3.28;;
22752;SDS011;11543;43.144;24.684;2024-01-11T10:45:02;6.40;;;3.33;;
22752;SDS011;11543;43.144;24.684;2024-01-11T10:47:31;15.20;;;9.43;;
22752;SDS011;11543;43.144;24.684;2024-01-11T10:49:57;15.07;;;9.38;;
22752;SDS011;11543;43.144;24.684;2024-01-11T10:55:00;7.18;;;3.25;;
22752;SDS011;11543;43.144;24.684;2024-01-11T10:57:27;4.70;;;2.45;;
22752;SDS011;11543;43.144;24.684;2024-01-11T10:59:54;40.63;;;22.58;;
22752;SDS011;11543;43.144;24.684;2024-01-11T11:02:20;84.03;;;39.80;;
22752;SDS011;11543;43.144;24.684;2024-01-11T11:04:47;130.05;;;63.80;;
22752;SDS011;11543;43.144;24.684;2024-01-11T11:07:16;23.25;;;10.90;;
22752;SDS011;11543;43.144;24.684;2024-01-11T11:09:44;6.28;;;3.70;;
22752;SDS011;11543;43.144;24.684;2024-01-11T11:12:11;3.47;;;2.50;;
22752;SDS011;11543;43.144;24.684;2024-01-11T11:14:38;6.90;;;3.58;;
22752;SDS011;11543;43.144;24.684;2024-01-11T11:17:04;8.65;;;5.10;;
22752;SDS011;11543;43.144;24.684;2024-01-11T11:19:30;29.13;;;16.30;;
22752;SDS011;11543;43.144;24.684;2024-01-11T11:21:56;48.92;;;32.58;;
22752;SDS011;11543;43.144;24.684;2024-01-11T11:24:22;6.28;;;3.85;;
22752;SDS011;11543;43.144;24.684;2024-01-11T11:26:47;4.75;;;2.80;;
22752;SDS011;11543;43.144;24.684;2024-01-11T11:29:14;5.78;;;3.42;;
22752;SDS011;11543;43.144;24.684;2024-01-11T11:31:44;5.90;;;2.70;;
22752;SDS011;11543;43.144;24.684;2024-01-11T11:34:19;6.13;;;3.00;;
22752;SDS011;11543;43.144;24.684;2024-01-11T11:36:49;5.63;;;3.20;;
22752;SDS011;11543;43.144;24.684;2024-01-11T11:39:19;3.67;;;2.38;;
22752;SDS011;11543;43.144;24.684;2024-01-11T11:41:45;5.72;;;3.00;;
22752;SDS011;11543;43.144;24.684;2024-01-11T11:44:12;4.45;;;2.58;;
22752;SDS011;11543;43.144;24.684;2024-01-11T11:46:41;4.38;;;2.75;;
22752;SDS011;11543;43.144;24.684;2024-01-11T11:49:06;5.53;;;3.38;;
22752;SDS011;11543;43.144;24.684;2024-01-11T11:51:32;6.63;;;3.28;;
22752;SDS011;11543;43.144;24.684;2024-01-11T11:53:58;4.90;;;3.00;;
22752;SDS011;11543;43.144;24.684;2024-01-11T11:56:23;4.65;;;2.65;;
22752;SDS011;11543;43.144;24.684;2024-01-11T11:58:49;5.43;;;2.70;;
22752;SDS011;11543;43.144;24.684;2024-01-11T12:01:17;5.93;;;2.67;;
22752;SDS011;11543;43.144;24.684;2024-01-11T12:03:44;13.27;;;8.20;;
22752;SDS011;11543;43.144;24.684;2024-01-11T12:06:17;5.03;;;2.88;;
22752;SDS011;11543;43.144;24.684;2024-01-11T12:08:44;9.48;;;4.07;;
22752;SDS011;11543;43.144;24.684;2024-01-11T12:11:14;8.98;;;5.30;;
22752;SDS011;11543;43.144;24.684;2024-01-11T12:13:44;39.38;;;19.33;;
22752;SDS011;11543;43.144;24.684;2024-01-11T12:16:10;154.18;;;88.95;;
22752;SDS011;11543;43.144;24.684;2024-01-11T12:18:36;81.07;;;43.00;;
22752;SDS011;11543;43.144;24.684;2024-01-11T12:21:02;26.27;;;15.55;;
22752;SDS011;11543;43.144;24.684;2024-01-11T12:23:28;10.50;;;5.63;;
22752;SDS011;11543;43.144;24.684;2024-01-11T12:25:58;35.70;;;20.42;;
22752;SDS011;11543;43.144;24.684;2024-01-11T12:28:24;47.33;;;27.20;;
22752;SDS011;11543;43.144;24.684;2024-01-11T12:30:49;18.45;;;11.75;;
22752;SDS011;11543;43.144;24.684;2024-01-11T12:33:15;73.63;;;42.08;;
22752;SDS011;11543;43.144;24.684;2024-01-11T12:35:41;261.52;;;158.52;;
22752;SDS011;11543;43.144;24.684;2024-01-11T12:38:07;141.55;;;83.57;;
22752;SDS011;11543;43.144;24.684;2024-01-11T12:40:34;24.42;;;18.02;;
22752;SDS011;11543;43.144;24.684;2024-01-11T12:43:02;207.88;;;128.60;;
22752;SDS011;11543;43.144;24.684;2024-01-11T12:45:28;61.83;;;37.92;;
22752;SDS011;11543;43.144;24.684;2024-01-11T12:47:55;70.80;;;40.08;;
22752;SDS011;11543;43.144;24.684;2024-01-11T12:50:25;47.33;;;30.15;;
22752;SDS011;11543;43.144;24.684;2024-01-11T12:55:43;16.88;;;10.38;;
22752;SDS011;11543;43.144;24.684;2024-01-11T12:58:26;162.65;;;74.63;;
22752;SDS011;11543;43.144;24.684;2024-01-11T13:00:52;20.40;;;14.05;;
22752;SDS011;11543;43.144;24.684;2024-01-11T13:03:18;8.88;;;6.38;;
22752;SDS011;11543;43.144;24.684;2024-01-11T13:05:45;8.80;;;7.07;;
22752;SDS011;11543;43.144;24.684;2024-01-11T13:08:11;6.78;;;4.65;;
22752;SDS011;11543;43.144;24.684;2024-01-11T13:10:36;12.45;;;6.63;;
22752;SDS011;11543;43.144;24.684;2024-01-11T13:13:02;9.48;;;6.30;;
22752;SDS011;11543;43.144;24.684;2024-01-11T13:15:29;18.85;;;13.70;;
22752;SDS011;11543;43.144;24.684;2024-01-11T13:17:56;8.65;;;5.63;;
22752;SDS011;11543;43.144;24.684;2024-01-11T13:20:26;5.65;;;3.25;;
22752;SDS011;11543;43.144;24.684;2024-01-11T13:22:56;5.95;;;3.67;;
22752;SDS011;11543;43.144;24.684;2024-01-11T13:25:43;9.63;;;6.43;;
22752;SDS011;11543;43.144;24.684;2024-01-11T13:28:10;12.95;;;7.45;;
22752;SDS011;11543;43.144;24.684;2024-01-11T13:30:38;8.50;;;5.05;;
22752;SDS011;11543;43.144;24.684;2024-01-11T13:33:05;9.23;;;4.55;;
22752;SDS011;11543;43.144;24.684;2024-01-11T13:35:33;6.47;;;4.00;;
22752;SDS011;11543;43.144;24.684;2024-01-11T13:38:02;7.38;;;4.10;;
22752;SDS011;11543;43.144;24.684;2024-01-11T13:40:29;5.85;;;3.00;;
22752;SDS011;11543;43.144;24.684;2024-01-11T13:42:55;5.32;;;3.20;;
22752;SDS011;11543;43.144;24.684;2024-01-11T13:45:24;7.18;;;3.58;;
22752;SDS011;11543;43.144;24.684;2024-01-11T13:47:51;7.80;;;3.25;;
22752;SDS011;11543;43.144;24.684;2024-01-11T13:50:19;6.25;;;3.92;;
22752;SDS011;11543;43.144;24.684;2024-01-11T13:52:45;6.93;;;4.43;;
22752;SDS011;11543;43.144;24.684;2024-01-11T13:55:11;6.82;;;4.13;;
22752;SDS011;11543;43.144;24.684;2024-01-11T13:57:37;8.75;;;6.75;;
22752;SDS011;11543;43.144;24.684;2024-01-11T14:00:04;6.68;;;4.63;;
22752;SDS011;11543;43.144;24.684;2024-01-11T14:02:30;4.38;;;2.60;;
22752;SDS011;11543;43.144;24.684;2024-01-11T14:04:56;5.57;;;2.55;;
22752;SDS011;11543;43.144;24.684;2024-01-11T14:07:22;2.92;;;1.70;;
22752;SDS011;11543;43.144;24.684;2024-01-11T14:09:49;4.18;;;1.50;;
22752;SDS011;11543;43.144;24.684;2024-01-11T14:12:14;3.15;;;1.50;;
22752;SDS011;11543;43.144;24.684;2024-01-11T14:14:41;5.97;;;2.22;;
22752;SDS011;11543;43.144;24.684;2024-01-11T14:17:07;4.47;;;2.30;;
22752;SDS011;11543;43.144;24.684;2024-01-11T14:19:33;6.45;;;2.65;;
22752;SDS011;11543;43.144;24.684;2024-01-11T14:21:59;7.50;;;2.90;;
22752;SDS011;11543;43.144;24.684;2024-01-11T14:24:24;14.57;;;7.28;;